sensor_id;sensor_type;location;lat;lon;timestamp;P1;durP1;ratioP1;P2;durP2;ratioP2
21886;SDS011;11108;49.988;8.182;2024-02-26T00:01:34;0.60;;;0.60;;
21886;SDS011;11108;49.988;8.182;2024-02-26T00:04:00;0.97;;;0.87;;
21886;SDS011;11108;49.988;8.182;2024-02-26T00:06:27;1.13;;;0.80;;
21886;SDS011;11108;49.988;8.182;2024-02-26T00:08:52;1.07;;;1.07;;
21886;SDS011;11108;49.988;8.182;2024-02-26T00:11:17;0.70;;;0.70;;
21886;SDS011;11108;49.988;8.182;2024-02-26T00:13:42;0.80;;;0.80;;
21886;SDS011;11108;49.988;8.182;2024-02-26T00:16:08;0.80;;;0.70;;
21886;SDS011;11108;49.988;8.182;2024-02-26T00:18:33;0.70;;;0.70;;
21886;SDS011;11108;49.988;8.182;2024-02-26T00:20:58;0.80;;;0.80;;
21886;SDS011;11108;49.988;8.182;2024-02-26T00:23:24;0.70;;;0.70;;
21886;SDS011;11108;49.988;8.182;2024-02-26T00:25:49;1.10;;;0.73;;
21886;SDS011;11108;49.988;8.182;2024-02-26T00:28:14;0.80;;;0.80;;
21886;SDS011;11108;49.988;8.182;2024-02-26T00:30:39;0.90;;;0.90;;
21886;SDS011;11108;49.988;8.182;2024-02-26T00:33:04;0.80;;;0.70;;
21886;SDS011;11108;49.988;8.182;2024-02-26T00:35:30;0.77;;;0.77;;
21886;SDS011;11108;49.988;8.182;2024-02-26T00:37:55;0.87;;;0.87;;
21886;SDS011;11108;49.988;8.182;2024-02-26T00:40:20;0.70;;;0.70;;
21886;SDS011;11108;49.988;8.182;2024-02-26T00:42:45;1.00;;;1.00;;
21886;SDS011;11108;49.988;8.182;2024-02-26T00:45:14;0.70;;;0.70;;
21886;SDS011;11108;49.988;8.182;2024-02-26T00:47:39;0.83;;;0.83;;
21886;SDS011;11108;49.988;8.182;2024-02-26T00:50:09;0.60;;;0.60;;
21886;SDS011;11108;49.988;8.182;2024-02-26T00:52:34;1.03;;;1.03;;
21886;SDS011;11108;49.988;8.182;2024-02-26T00:55:00;0.70;;;0.70;;
21886;SDS011;11108;49.988;8.182;2024-02-26T00:57:25;0.73;;;0.73;;
21886;SDS011;11108;49.988;8.182;2024-02-26T00:59:50;1.00;;;1.00;;
21886;SDS011;11108;49.988;8.182;2024-02-26T01:02:15;0.80;;;0.80;;
21886;SDS011;11108;49.988;8.182;2024-02-26T01:04:41;0.70;;;0.70;;
21886;SDS011;11108;49.988;8.182;2024-02-26T01:07:06;1.70;;;0.87;;
21886;SDS011;11108;49.988;8.182;2024-02-26T01:09:31;0.63;;;0.63;;
21886;SDS011;11108;49.988;8.182;2024-02-26T01:11:56;0.93;;;0.93;;
21886;SDS011;11108;49.988;8.182;2024-02-26T01:14:21;1.10;;;1.03;;
21886;SDS011;11108;49.988;8.182;2024-02-26T01:16:47;0.70;;;0.70;;
21886;SDS011;11108;49.988;8.182;2024-02-26T01:19:12;0.70;;;0.70;;
21886;SDS011;11108;49.988;8.182;2024-02-26T01:21:37;0.50;;;0.50;;
21886;SDS011;11108;49.988;8.182;2024-02-26T01:24:02;1.60;;;1.00;;
21886;SDS011;11108;49.988;8.182;2024-02-26T01:26:28;0.80;;;0.80;;
21886;SDS011;11108;49.988;8.182;2024-02-26T01:28:53;0.80;;;0.80;;
21886;SDS011;11108;49.988;8.182;2024-02-26T01:31:20;1.23;;;0.80;;
21886;SDS011;11108;49.988;8.182;2024-02-26T01:33:45;1.13;;;0.80;;
21886;SDS011;11108;49.988;8.182;2024-02-26T01:36:10;0.80;;;0.80;;
21886;SDS011;11108;49.988;8.182;2024-02-26T01:38:35;0.80;;;0.80;;
21886;SDS011;11108;49.988;8.182;2024-02-26T01:41:00;0.70;;;0.70;;
21886;SDS011;11108;49.988;8.182;2024-02-26T01:43:26;0.83;;;0.83;;
21886;SDS011;11108;49.988;8.182;2024-02-26T01:45:51;1.00;;;1.00;;
21886;SDS011;11108;49.988;8.182;2024-02-26T01:48:16;0.70;;;0.70;;
21886;SDS011;11108;49.988;8.182;2024-02-26T01:50:42;0.80;;;0.80;;
21886;SDS011;11108;49.988;8.182;2024-02-26T01:53:07;0.90;;;0.90;;
21886;SDS011;11108;49.988;8.182;2024-02-26T01:55:33;0.83;;;0.83;;
21886;SDS011;11108;49.988;8.182;2024-02-26T01:57:58;0.90;;;0.90;;
21886;SDS011;11108;49.988;8.182;2024-02-26T02:00:24;0.80;;;0.80;;
21886;SDS011;11108;49.988;8.182;2024-02-26T02:02:49;0.87;;;0.87;;
21886;SDS011;11108;49.988;8.182;2024-02-26T02:05:15;0.77;;;0.77;;
21886;SDS011;11108;49.988;8.182;2024-02-26T02:07:42;0.97;;;0.77;;
21886;SDS011;11108;49.988;8.182;2024-02-26T02:10:08;0.87;;;0.87;;
21886;SDS011;11108;49.988;8.182;2024-02-26T02:12:33;0.97;;;0.97;;
21886;SDS011;11108;49.988;8.182;2024-02-26T02:14:59;0.90;;;0.90;;
21886;SDS011;11108;49.988;8.182;2024-02-26T02:17:24;0.90;;;0.70;;
21886;SDS011;11108;49.988;8.182;2024-02-26T02:19:50;0.80;;;0.80;;
21886;SDS011;11108;49.988;8.182;2024-02-26T02:22:15;1.00;;;1.00;;
21886;SDS011;11108;49.988;8.182;2024-02-26T02:24:40;0.90;;;0.90;;
21886;SDS011;11108;49.988;8.182;2024-02-26T02:27:05;0.77;;;0.77;;
21886;SDS011;11108;49.988;8.182;2024-02-26T02:29:31;0.80;;;0.80;;
21886;SDS011;11108;49.988;8.182;2024-02-26T02:31:56;0.63;;;0.63;;
21886;SDS011;11108;49.988;8.182;2024-02-26T02:34:21;0.67;;;0.67;;
21886;SDS011;11108;49.988;8.182;2024-02-26T02:36:53;0.97;;;0.97;;
21886;SDS011;11108;49.988;8.182;2024-02-26T02:39:19;0.97;;;0.97;;
21886;SDS011;11108;49.988;8.182;2024-02-26T02:41:44;0.73;;;0.73;;
21886;SDS011;11108;49.988;8.182;2024-02-26T02:44:10;0.57;;;0.57;;
21886;SDS011;11108;49.988;8.182;2024-02-26T02:46:35;0.73;;;0.73;;
21886;SDS011;11108;49.988;8.182;2024-02-26T02:49:00;1.23;;;0.73;;
21886;SDS011;11108;49.988;8.182;2024-02-26T02:51:26;0.70;;;0.70;;
21886;SDS011;11108;49.988;8.182;2024-02-26T02:53:51;0.70;;;0.70;;
21886;SDS011;11108;49.988;8.182;2024-02-26T02:56:16;0.90;;;0.90;;
21886;SDS011;11108;49.988;8.182;2024-02-26T02:58:41;0.83;;;0.83;;
21886;SDS011;11108;49.988;8.182;2024-02-26T03:01:06;0.67;;;0.67;;
21886;SDS011;11108;49.988;8.182;2024-02-26T03:03:32;0.70;;;0.70;;
21886;SDS011;11108;49.988;8.182;2024-02-26T03:05:57;0.77;;;0.77;;
21886;SDS011;11108;49.988;8.182;2024-02-26T03:08:23;0.80;;;0.80;;
21886;SDS011;11108;49.988;8.182;2024-02-26T03:10:48;0.80;;;0.80;;
21886;SDS011;11108;49.988;8.182;2024-02-26T03:13:14;0.90;;;0.90;;
21886;SDS011;11108;49.988;8.182;2024-02-26T03:15:39;0.80;;;0.80;;
21886;SDS011;11108;49.988;8.182;2024-02-26T03:18:04;0.73;;;0.73;;
21886;SDS011;11108;49.988;8.182;2024-02-26T03:20:29;0.67;;;0.67;;
21886;SDS011;11108;49.988;8.182;2024-02-26T03:22:54;4.60;;;0.83;;
21886;SDS011;11108;49.988;8.182;2024-02-26T03:25:20;0.60;;;0.60;;
21886;SDS011;11108;49.988;8.182;2024-02-26T03:27:45;0.93;;;0.73;;
21886;SDS011;11108;49.988;8.182;2024-02-26T03:30:10;0.80;;;0.80;;
21886;SDS011;11108;49.988;8.182;2024-02-26T03:32:35;0.60;;;0.60;;
21886;SDS011;11108;49.988;8.182;2024-02-26T03:35:00;2.13;;;0.63;;
21886;SDS011;11108;49.988;8.182;2024-02-26T03:37:26;0.70;;;0.70;;
21886;SDS011;11108;49.988;8.182;2024-02-26T03:39:51;0.70;;;0.70;;
21886;SDS011;11108;49.988;8.182;2024-02-26T03:42:16;0.97;;;0.97;;
21886;SDS011;11108;49.988;8.182;2024-02-26T03:44:41;0.80;;;0.80;;
21886;SDS011;11108;49.988;8.182;2024-02-26T03:47:07;0.67;;;0.67;;
21886;SDS011;11108;49.988;8.182;2024-02-26T03:49:32;0.77;;;0.77;;
21886;SDS011;11108;49.988;8.182;2024-02-26T03:51:57;0.70;;;0.70;;
21886;SDS011;11108;49.988;8.182;2024-02-26T03:54:22;0.60;;;0.60;;
21886;SDS011;11108;49.988;8.182;2024-02-26T03:56:47;0.63;;;0.63;;
21886;SDS011;11108;49.988;8.182;2024-02-26T03:59:13;1.47;;;1.00;;
21886;SDS011;11108;49.988;8.182;2024-02-26T04:01:38;0.87;;;0.87;;
21886;SDS011;11108;49.988;8.182;2024-02-26T04:04:03;0.87;;;0.87;;
21886;SDS011;11108;49.988;8.182;2024-02-26T04:06:28;0.80;;;0.80;;
21886;SDS011;11108;49.988;8.182;2024-02-26T04:08:54;0.70;;;0.70;;
21886;SDS011;11108;49.988;8.182;2024-02-26T04:11:19;0.80;;;0.80;;
21886;SDS011;11108;49.988;8.182;2024-02-26T04:13:45;0.73;;;0.73;;
21886;SDS011;11108;49.988;8.182;2024-02-26T04:16:14;0.60;;;0.60;;
21886;SDS011;11108;49.988;8.182;2024-02-26T04:18:40;0.73;;;0.73;;
21886;SDS011;11108;49.988;8.182;2024-02-26T04:21:05;1.03;;;1.03;;
21886;SDS011;11108;49.988;8.182;2024-02-26T04:23:32;0.70;;;0.70;;
21886;SDS011;11108;49.988;8.182;2024-02-26T04:25:57;0.80;;;0.80;;
21886;SDS011;11108;49.988;8.182;2024-02-26T04:28:22;0.83;;;0.77;;
21886;SDS011;11108;49.988;8.182;2024-02-26T04:30:50;0.90;;;0.90;;
21886;SDS011;11108;49.988;8.182;2024-02-26T04:33:15;0.87;;;0.87;;
21886;SDS011;11108;49.988;8.182;2024-02-26T04:35:41;1.00;;;1.00;;
21886;SDS011;11108;49.988;8.182;2024-02-26T04:38:06;0.70;;;0.70;;
21886;SDS011;11108;49.988;8.182;2024-02-26T04:40:32;0.90;;;0.90;;
21886;SDS011;11108;49.988;8.182;2024-02-26T04:42:57;0.70;;;0.70;;
21886;SDS011;11108;49.988;8.182;2024-02-26T04:45:22;0.90;;;0.90;;
21886;SDS011;11108;49.988;8.182;2024-02-26T04:47:56;0.80;;;0.80;;
21886;SDS011;11108;49.988;8.182;2024-02-26T04:50:40;1.17;;;0.80;;
21886;SDS011;11108;49.988;8.182;2024-02-26T04:53:12;0.80;;;0.80;;
21886;SDS011;11108;49.988;8.182;2024-02-26T04:55:37;0.80;;;0.80;;
21886;SDS011;11108;49.988;8.182;2024-02-26T04:58:02;0.87;;;0.87;;
21886;SDS011;11108;49.988;8.182;2024-02-26T05:00:28;0.80;;;0.80;;
21886;SDS011;11108;49.988;8.182;2024-02-26T05:03:00;0.90;;;0.90;;
21886;SDS011;11108;49.988;8.182;2024-02-26T05:05:29;1.17;;;0.90;;
21886;SDS011;11108;49.988;8.182;2024-02-26T05:08:00;0.97;;;0.97;;
21886;SDS011;11108;49.988;8.182;2024-02-26T05:10:28;0.80;;;0.80;;
21886;SDS011;11108;49.988;8.182;2024-02-26T05:12:53;0.57;;;0.57;;
21886;SDS011;11108;49.988;8.182;2024-02-26T05:15:18;0.80;;;0.80;;
21886;SDS011;11108;49.988;8.182;2024-02-26T05:17:44;0.80;;;0.80;;
21886;SDS011;11108;49.988;8.182;2024-02-26T05:20:10;0.93;;;0.93;;
21886;SDS011;11108;49.988;8.182;2024-02-26T05:22:35;0.70;;;0.70;;
21886;SDS011;11108;49.988;8.182;2024-02-26T05:25:00;1.13;;;0.70;;
21886;SDS011;11108;49.988;8.182;2024-02-26T05:27:32;1.33;;;0.80;;
21886;SDS011;11108;49.988;8.182;2024-02-26T05:30:01;0.70;;;0.70;;
21886;SDS011;11108;49.988;8.182;2024-02-26T05:32:29;0.90;;;0.90;;
21886;SDS011;11108;49.988;8.182;2024-02-26T05:34:57;1.50;;;0.80;;
21886;SDS011;11108;49.988;8.182;2024-02-26T05:37:22;0.80;;;0.80;;
21886;SDS011;11108;49.988;8.182;2024-02-26T05:39:59;0.87;;;0.87;;
21886;SDS011;11108;49.988;8.182;2024-02-26T05:42:33;1.13;;;1.13;;
21886;SDS011;11108;49.988;8.182;2024-02-26T05:44:58;0.80;;;0.80;;
21886;SDS011;11108;49.988;8.182;2024-02-26T05:47:33;1.00;;;1.00;;
21886;SDS011;11108;49.988;8.182;2024-02-26T05:50:04;0.90;;;0.90;;
21886;SDS011;11108;49.988;8.182;2024-02-26T05:52:29;0.97;;;0.97;;
21886;SDS011;11108;49.988;8.182;2024-02-26T05:54:55;0.77;;;0.77;;
21886;SDS011;11108;49.988;8.182;2024-02-26T05:57:20;0.90;;;0.90;;
21886;SDS011;11108;49.988;8.182;2024-02-26T05:59:45;0.70;;;0.70;;
21886;SDS011;11108;49.988;8.182;2024-02-26T06:02:11;1.00;;;1.00;;
21886;SDS011;11108;49.988;8.182;2024-02-26T06:04:39;1.00;;;0.90;;
21886;SDS011;11108;49.988;8.182;2024-02-26T06:07:08;0.80;;;0.80;;
21886;SDS011;11108;49.988;8.182;2024-02-26T06:09:36;0.80;;;0.80;;
21886;SDS011;11108;49.988;8.182;2024-02-26T06:12:02;0.87;;;0.87;;
21886;SDS011;11108;49.988;8.182;2024-02-26T06:14:28;0.90;;;0.90;;
21886;SDS011;11108;49.988;8.182;2024-02-26T06:16:55;0.70;;;0.70;;
21886;SDS011;11108;49.988;8.182;2024-02-26T06:19:20;0.93;;;0.93;;
21886;SDS011;11108;49.988;8.182;2024-02-26T06:21:46;0.90;;;0.90;;
21886;SDS011;11108;49.988;8.182;2024-02-26T06:24:11;0.90;;;0.90;;
21886;SDS011;11108;49.988;8.182;2024-02-26T06:26:40;0.90;;;0.90;;
21886;SDS011;11108;49.988;8.182;2024-02-26T06:29:26;0.77;;;0.77;;
21886;SDS011;11108;49.988;8.182;2024-02-26T06:31:54;1.13;;;0.93;;
21886;SDS011;11108;49.988;8.182;2024-02-26T06:34:25;0.97;;;0.97;;
21886;SDS011;11108;49.988;8.182;2024-02-26T06:36:51;0.80;;;0.80;;
21886;SDS011;11108;49.988;8.182;2024-02-26T06:39:22;1.20;;;1.10;;
21886;SDS011;11108;49.988;8.182;2024-02-26T06:41:48;0.87;;;0.60;;
21886;SDS011;11108;49.988;8.182;2024-02-26T06:44:13;0.90;;;0.90;;
21886;SDS011;11108;49.988;8.182;2024-02-26T06:46:39;0.73;;;0.73;;
21886;SDS011;11108;49.988;8.182;2024-02-26T06:49:05;0.70;;;0.70;;
21886;SDS011;11108;49.988;8.182;2024-02-26T06:51:30;1.57;;;0.90;;
21886;SDS011;11108;49.988;8.182;2024-02-26T06:53:55;2.47;;;0.80;;
21886;SDS011;11108;49.988;8.182;2024-02-26T06:56:21;1.13;;;1.00;;
21886;SDS011;11108;49.988;8.182;2024-02-26T06:58:49;2.10;;;0.80;;
21886;SDS011;11108;49.988;8.182;2024-02-26T07:01:14;0.90;;;0.90;;
21886;SDS011;11108;49.988;8.182;2024-02-26T07:03:42;2.50;;;0.90;;
21886;SDS011;11108;49.988;8.182;2024-02-26T07:06:08;1.10;;;1.00;;
21886;SDS011;11108;49.988;8.182;2024-02-26T07:08:38;1.27;;;1.10;;
21886;SDS011;11108;49.988;8.182;2024-02-26T07:11:06;1.33;;;0.90;;
21886;SDS011;11108;49.988;8.182;2024-02-26T07:13:55;1.30;;;0.97;;
21886;SDS011;11108;49.988;8.182;2024-02-26T07:16:20;1.13;;;1.00;;
21886;SDS011;11108;49.988;8.182;2024-02-26T07:18:46;1.90;;;1.10;;
21886;SDS011;11108;49.988;8.182;2024-02-26T07:21:14;1.10;;;1.00;;
21886;SDS011;11108;49.988;8.182;2024-02-26T07:23:39;0.93;;;0.93;;
21886;SDS011;11108;49.988;8.182;2024-02-26T07:26:04;0.93;;;0.93;;
21886;SDS011;11108;49.988;8.182;2024-02-26T07:28:30;1.13;;;1.10;;
21886;SDS011;11108;49.988;8.182;2024-02-26T07:30:56;0.80;;;0.80;;
21886;SDS011;11108;49.988;8.182;2024-02-26T07:33:21;1.13;;;1.07;;
21886;SDS011;11108;49.988;8.182;2024-02-26T07:35:49;0.97;;;0.97;;
21886;SDS011;11108;49.988;8.182;2024-02-26T07:38:14;1.13;;;1.00;;
21886;SDS011;11108;49.988;8.182;2024-02-26T07:40:40;1.50;;;1.13;;
21886;SDS011;11108;49.988;8.182;2024-02-26T07:43:06;1.83;;;1.13;;
21886;SDS011;11108;49.988;8.182;2024-02-26T07:45:37;1.70;;;0.80;;
21886;SDS011;11108;49.988;8.182;2024-02-26T07:48:02;1.50;;;1.00;;
21886;SDS011;11108;49.988;8.182;2024-02-26T07:50:27;1.23;;;1.13;;
21886;SDS011;11108;49.988;8.182;2024-02-26T07:52:53;1.10;;;1.00;;
21886;SDS011;11108;49.988;8.182;2024-02-26T07:55:18;2.63;;;1.00;;
21886;SDS011;11108;49.988;8.182;2024-02-26T07:57:53;1.40;;;1.30;;
21886;SDS011;11108;49.988;8.182;2024-02-26T08:00:18;1.00;;;1.00;;
21886;SDS011;11108;49.988;8.182;2024-02-26T08:02:44;2.17;;;1.30;;
21886;SDS011;11108;49.988;8.182;2024-02-26T08:05:09;1.20;;;1.10;;
21886;SDS011;11108;49.988;8.182;2024-02-26T08:07:34;1.23;;;1.10;;
21886;SDS011;11108;49.988;8.182;2024-02-26T08:09:59;1.07;;;0.97;;
21886;SDS011;11108;49.988;8.182;2024-02-26T08:12:24;1.17;;;1.17;;
21886;SDS011;11108;49.988;8.182;2024-02-26T08:14:50;1.40;;;1.40;;
21886;SDS011;11108;49.988;8.182;2024-02-26T08:17:18;1.80;;;1.00;;
21886;SDS011;11108;49.988;8.182;2024-02-26T08:19:44;1.70;;;1.30;;
21886;SDS011;11108;49.988;8.182;2024-02-26T08:22:09;2.10;;;1.37;;
21886;SDS011;11108;49.988;8.182;2024-02-26T08:24:40;3.27;;;1.50;;
21886;SDS011;11108;49.988;8.182;2024-02-26T08:27:15;2.00;;;1.10;;
21886;SDS011;11108;49.988;8.182;2024-02-26T08:29:40;3.13;;;1.33;;
21886;SDS011;11108;49.988;8.182;2024-02-26T08:32:05;2.40;;;1.10;;
21886;SDS011;11108;49.988;8.182;2024-02-26T08:34:32;1.77;;;1.43;;
21886;SDS011;11108;49.988;8.182;2024-02-26T08:36:57;1.63;;;1.53;;
21886;SDS011;11108;49.988;8.182;2024-02-26T08:39:22;3.30;;;1.40;;
21886;SDS011;11108;49.988;8.182;2024-02-26T08:41:47;1.63;;;1.30;;
21886;SDS011;11108;49.988;8.182;2024-02-26T08:44:13;1.53;;;1.43;;
21886;SDS011;11108;49.988;8.182;2024-02-26T08:46:38;3.00;;;1.30;;
21886;SDS011;11108;49.988;8.182;2024-02-26T08:49:06;1.00;;;0.93;;
21886;SDS011;11108;49.988;8.182;2024-02-26T08:51:31;2.20;;;1.20;;
21886;SDS011;11108;49.988;8.182;2024-02-26T08:53:56;2.50;;;1.27;;
21886;SDS011;11108;49.988;8.182;2024-02-26T08:56:22;3.70;;;1.43;;
21886;SDS011;11108;49.988;8.182;2024-02-26T08:58:47;1.43;;;1.30;;
21886;SDS011;11108;49.988;8.182;2024-02-26T09:01:19;1.23;;;1.13;;
21886;SDS011;11108;49.988;8.182;2024-02-26T09:03:45;1.23;;;1.13;;
21886;SDS011;11108;49.988;8.182;2024-02-26T09:06:10;1.20;;;1.10;;
21886;SDS011;11108;49.988;8.182;2024-02-26T09:08:37;1.03;;;1.03;;
21886;SDS011;11108;49.988;8.182;2024-02-26T09:11:02;1.20;;;1.10;;
21886;SDS011;11108;49.988;8.182;2024-02-26T09:13:28;1.10;;;1.10;;
21886;SDS011;11108;49.988;8.182;2024-02-26T09:15:56;1.73;;;1.20;;
21886;SDS011;11108;49.988;8.182;2024-02-26T09:18:21;1.40;;;1.17;;
21886;SDS011;11108;49.988;8.182;2024-02-26T09:20:46;3.17;;;1.33;;
21886;SDS011;11108;49.988;8.182;2024-02-26T09:23:16;2.77;;;1.30;;
21886;SDS011;11108;49.988;8.182;2024-02-26T09:25:41;5.33;;;1.83;;
21886;SDS011;11108;49.988;8.182;2024-02-26T09:28:06;4.83;;;1.40;;
21886;SDS011;11108;49.988;8.182;2024-02-26T09:30:31;1.63;;;1.40;;
21886;SDS011;11108;49.988;8.182;2024-02-26T09:32:56;1.30;;;1.20;;
21886;SDS011;11108;49.988;8.182;2024-02-26T09:35:22;1.90;;;1.17;;
21886;SDS011;11108;49.988;8.182;2024-02-26T09:37:51;2.00;;;1.60;;
21886;SDS011;11108;49.988;8.182;2024-02-26T09:40:17;3.27;;;1.33;;
21886;SDS011;11108;49.988;8.182;2024-02-26T09:42:45;1.40;;;1.30;;
21886;SDS011;11108;49.988;8.182;2024-02-26T09:45:21;3.17;;;1.70;;
21886;SDS011;11108;49.988;8.182;2024-02-26T09:47:47;1.33;;;1.33;;
21886;SDS011;11108;49.988;8.182;2024-02-26T09:50:13;1.50;;;1.40;;
21886;SDS011;11108;49.988;8.182;2024-02-26T09:52:39;2.10;;;1.10;;
21886;SDS011;11108;49.988;8.182;2024-02-26T09:55:07;2.67;;;1.50;;
21886;SDS011;11108;49.988;8.182;2024-02-26T09:57:34;1.83;;;1.10;;
21886;SDS011;11108;49.988;8.182;2024-02-26T10:00:00;1.40;;;1.30;;
21886;SDS011;11108;49.988;8.182;2024-02-26T10:02:30;2.87;;;1.63;;
21886;SDS011;11108;49.988;8.182;2024-02-26T10:04:56;4.20;;;1.33;;
21886;SDS011;11108;49.988;8.182;2024-02-26T10:07:22;1.73;;;1.63;;
21886;SDS011;11108;49.988;8.182;2024-02-26T10:09:48;2.30;;;1.33;;
21886;SDS011;11108;49.988;8.182;2024-02-26T10:12:13;1.40;;;1.30;;
21886;SDS011;11108;49.988;8.182;2024-02-26T10:14:41;1.30;;;1.20;;
21886;SDS011;11108;49.988;8.182;2024-02-26T10:17:09;1.30;;;1.20;;
21886;SDS011;11108;49.988;8.182;2024-02-26T10:19:35;2.00;;;1.40;;
21886;SDS011;11108;49.988;8.182;2024-02-26T10:22:00;1.60;;;1.47;;
21886;SDS011;11108;49.988;8.182;2024-02-26T10:24:29;1.47;;;1.30;;
21886;SDS011;11108;49.988;8.182;2024-02-26T10:26:59;1.83;;;1.40;;
21886;SDS011;11108;49.988;8.182;2024-02-26T10:29:25;2.13;;;1.33;;
21886;SDS011;11108;49.988;8.182;2024-02-26T10:31:51;1.97;;;1.37;;
21886;SDS011;11108;49.988;8.182;2024-02-26T10:34:16;1.00;;;1.00;;
21886;SDS011;11108;49.988;8.182;2024-02-26T10:36:41;1.33;;;1.20;;
21886;SDS011;11108;49.988;8.182;2024-02-26T10:39:07;3.00;;;1.40;;
21886;SDS011;11108;49.988;8.182;2024-02-26T10:41:35;2.63;;;1.47;;
21886;SDS011;11108;49.988;8.182;2024-02-26T10:44:04;1.23;;;1.10;;
21886;SDS011;11108;49.988;8.182;2024-02-26T10:46:29;2.27;;;1.67;;
21886;SDS011;11108;49.988;8.182;2024-02-26T10:48:57;1.60;;;1.47;;
21886;SDS011;11108;49.988;8.182;2024-02-26T10:51:26;2.87;;;1.43;;
21886;SDS011;11108;49.988;8.182;2024-02-26T10:53:54;1.90;;;1.40;;
21886;SDS011;11108;49.988;8.182;2024-02-26T10:56:21;1.77;;;1.50;;
21886;SDS011;11108;49.988;8.182;2024-02-26T10:58:50;1.57;;;1.47;;
21886;SDS011;11108;49.988;8.182;2024-02-26T11:01:16;1.53;;;1.40;;
21886;SDS011;11108;49.988;8.182;2024-02-26T11:03:41;1.83;;;1.20;;
21886;SDS011;11108;49.988;8.182;2024-02-26T11:06:06;1.37;;;1.27;;
21886;SDS011;11108;49.988;8.182;2024-02-26T11:08:33;1.50;;;1.40;;
21886;SDS011;11108;49.988;8.182;2024-02-26T11:10:58;1.63;;;1.30;;
21886;SDS011;11108;49.988;8.182;2024-02-26T11:13:26;1.30;;;1.20;;
21886;SDS011;11108;49.988;8.182;2024-02-26T11:15:55;2.00;;;1.30;;
21886;SDS011;11108;49.988;8.182;2024-02-26T11:18:22;1.47;;;1.37;;
21886;SDS011;11108;49.988;8.182;2024-02-26T11:20:48;1.10;;;1.10;;
21886;SDS011;11108;49.988;8.182;2024-02-26T11:23:14;1.63;;;1.37;;
21886;SDS011;11108;49.988;8.182;2024-02-26T11:25:40;2.10;;;1.37;;
21886;SDS011;11108;49.988;8.182;2024-02-26T11:28:06;1.40;;;1.30;;
21886;SDS011;11108;49.988;8.182;2024-02-26T11:30:33;1.60;;;1.50;;
21886;SDS011;11108;49.988;8.182;2024-02-26T11:33:03;1.60;;;1.50;;
21886;SDS011;11108;49.988;8.182;2024-02-26T11:35:29;1.83;;;1.40;;
21886;SDS011;11108;49.988;8.182;2024-02-26T11:37:54;1.40;;;1.30;;
21886;SDS011;11108;49.988;8.182;2024-02-26T11:40:21;1.20;;;1.20;;
21886;SDS011;11108;49.988;8.182;2024-02-26T11:42:47;1.50;;;1.13;;
21886;SDS011;11108;49.988;8.182;2024-02-26T11:47:56;1.67;;;1.60;;
21886;SDS011;11108;49.988;8.182;2024-02-26T11:50:34;1.50;;;1.40;;
21886;SDS011;11108;49.988;8.182;2024-02-26T11:55:44;1.50;;;1.40;;
21886;SDS011;11108;49.988;8.182;2024-02-26T11:58:16;1.33;;;1.27;;
21886;SDS011;11108;49.988;8.182;2024-02-26T12:00:42;3.10;;;1.63;;
21886;SDS011;11108;49.988;8.182;2024-02-26T12:03:07;1.60;;;1.50;;
21886;SDS011;11108;49.988;8.182;2024-02-26T12:05:35;1.37;;;1.27;;
21886;SDS011;11108;49.988;8.182;2024-02-26T12:08:03;1.63;;;1.27;;
21886;SDS011;11108;49.988;8.182;2024-02-26T12:13:16;1.40;;;1.30;;
21886;SDS011;11108;49.988;8.182;2024-02-26T12:15:43;1.50;;;1.30;;
21886;SDS011;11108;49.988;8.182;2024-02-26T12:18:09;1.97;;;1.47;;
21886;SDS011;11108;49.988;8.182;2024-02-26T12:20:38;2.20;;;1.40;;
21886;SDS011;11108;49.988;8.182;2024-02-26T12:23:04;1.37;;;1.20;;
21886;SDS011;11108;49.988;8.182;2024-02-26T12:25:29;1.87;;;1.70;;
21886;SDS011;11108;49.988;8.182;2024-02-26T12:27:56;2.20;;;1.60;;
21886;SDS011;11108;49.988;8.182;2024-02-26T12:30:21;3.60;;;1.67;;
21886;SDS011;11108;49.988;8.182;2024-02-26T12:32:47;1.20;;;1.20;;
21886;SDS011;11108;49.988;8.182;2024-02-26T12:35:13;2.40;;;1.67;;
21886;SDS011;11108;49.988;8.182;2024-02-26T12:37:38;1.70;;;1.60;;
21886;SDS011;11108;49.988;8.182;2024-02-26T12:40:08;2.47;;;1.63;;
21886;SDS011;11108;49.988;8.182;2024-02-26T12:42:33;2.43;;;1.50;;
21886;SDS011;11108;49.988;8.182;2024-02-26T12:45:04;1.50;;;1.40;;
21886;SDS011;11108;49.988;8.182;2024-02-26T12:47:33;1.73;;;1.63;;
21886;SDS011;11108;49.988;8.182;2024-02-26T12:49:59;1.60;;;1.50;;
21886;SDS011;11108;49.988;8.182;2024-02-26T12:52:24;2.70;;;1.67;;
21886;SDS011;11108;49.988;8.182;2024-02-26T12:54:50;2.17;;;1.70;;
21886;SDS011;11108;49.988;8.182;2024-02-26T12:57:15;3.23;;;1.77;;
21886;SDS011;11108;49.988;8.182;2024-02-26T12:59:41;1.93;;;1.83;;
21886;SDS011;11108;49.988;8.182;2024-02-26T13:02:06;2.13;;;1.80;;
21886;SDS011;11108;49.988;8.182;2024-02-26T13:04:32;1.80;;;1.70;;
21886;SDS011;11108;49.988;8.182;2024-02-26T13:06:57;2.30;;;2.00;;
21886;SDS011;11108;49.988;8.182;2024-02-26T13:09:28;2.83;;;2.07;;
21886;SDS011;11108;49.988;8.182;2024-02-26T13:11:56;2.87;;;2.00;;
21886;SDS011;11108;49.988;8.182;2024-02-26T13:14:21;3.53;;;2.10;;
21886;SDS011;11108;49.988;8.182;2024-02-26T13:16:56;3.60;;;1.90;;
21886;SDS011;11108;49.988;8.182;2024-02-26T13:19:22;2.00;;;1.90;;
21886;SDS011;11108;49.988;8.182;2024-02-26T13:21:47;2.33;;;1.83;;
21886;SDS011;11108;49.988;8.182;2024-02-26T13:24:12;2.53;;;2.30;;
21886;SDS011;11108;49.988;8.182;2024-02-26T13:26:38;2.77;;;2.20;;
21886;SDS011;11108;49.988;8.182;2024-02-26T13:29:03;2.07;;;1.80;;
21886;SDS011;11108;49.988;8.182;2024-02-26T13:31:28;3.07;;;2.30;;
21886;SDS011;11108;49.988;8.182;2024-02-26T13:33:54;6.07;;;2.40;;
21886;SDS011;11108;49.988;8.182;2024-02-26T13:36:21;3.30;;;2.67;;
21886;SDS011;11108;49.988;8.182;2024-02-26T13:38:52;2.70;;;2.50;;
21886;SDS011;11108;49.988;8.182;2024-02-26T13:41:18;3.10;;;2.20;;
21886;SDS011;11108;49.988;8.182;2024-02-26T13:43:43;2.37;;;2.17;;
21886;SDS011;11108;49.988;8.182;2024-02-26T13:46:09;2.70;;;2.17;;
21886;SDS011;11108;49.988;8.182;2024-02-26T13:48:36;2.07;;;1.97;;
21886;SDS011;11108;49.988;8.182;2024-02-26T13:51:01;3.60;;;2.23;;
21886;SDS011;11108;49.988;8.182;2024-02-26T13:53:26;2.67;;;2.13;;
21886;SDS011;11108;49.988;8.182;2024-02-26T13:55:51;2.70;;;1.90;;
21886;SDS011;11108;49.988;8.182;2024-02-26T13:58:16;2.27;;;2.17;;
21886;SDS011;11108;49.988;8.182;2024-02-26T14:00:45;2.20;;;2.10;;
21886;SDS011;11108;49.988;8.182;2024-02-26T14:03:10;3.60;;;2.00;;
21886;SDS011;11108;49.988;8.182;2024-02-26T14:05:35;2.27;;;2.10;;
21886;SDS011;11108;49.988;8.182;2024-02-26T14:08:01;3.00;;;1.87;;
21886;SDS011;11108;49.988;8.182;2024-02-26T14:10:29;2.37;;;1.73;;
21886;SDS011;11108;49.988;8.182;2024-02-26T14:12:55;1.80;;;1.70;;
21886;SDS011;11108;49.988;8.182;2024-02-26T14:15:20;2.63;;;2.27;;
21886;SDS011;11108;49.988;8.182;2024-02-26T14:17:45;2.07;;;1.83;;
21886;SDS011;11108;49.988;8.182;2024-02-26T14:20:18;2.73;;;1.87;;
21886;SDS011;11108;49.988;8.182;2024-02-26T14:22:43;1.70;;;1.60;;
21886;SDS011;11108;49.988;8.182;2024-02-26T14:25:08;1.63;;;1.53;;
21886;SDS011;11108;49.988;8.182;2024-02-26T14:27:34;2.60;;;1.80;;
21886;SDS011;11108;49.988;8.182;2024-02-26T14:29:59;2.33;;;1.27;;
21886;SDS011;11108;49.988;8.182;2024-02-26T14:32:24;2.53;;;1.80;;
21886;SDS011;11108;49.988;8.182;2024-02-26T14:34:50;2.17;;;1.70;;
21886;SDS011;11108;49.988;8.182;2024-02-26T14:37:15;2.00;;;1.90;;
21886;SDS011;11108;49.988;8.182;2024-02-26T14:39:40;1.87;;;1.70;;
21886;SDS011;11108;49.988;8.182;2024-02-26T14:42:06;2.20;;;1.50;;
21886;SDS011;11108;49.988;8.182;2024-02-26T14:44:31;2.27;;;1.90;;
21886;SDS011;11108;49.988;8.182;2024-02-26T14:46:56;2.93;;;1.60;;
21886;SDS011;11108;49.988;8.182;2024-02-26T14:49:22;1.70;;;1.60;;
21886;SDS011;11108;49.988;8.182;2024-02-26T14:51:47;1.47;;;1.37;;